sensor_id;sensor_type;location;lat;lon;timestamp;temperature;humidity
25450;DHT22;13371;52.080;5.624;2022-12-19T00:02:06;2.00;99.90
25450;DHT22;13371;52.080;5.624;2022-12-19T00:04:32;1.90;99.90
25450;DHT22;13371;52.080;5.624;2022-12-19T00:06:58;2.00;99.90
25450;DHT22;13371;52.080;5.624;2022-12-19T00:09:24;1.90;99.90
25450;DHT22;13371;52.080;5.624;2022-12-19T00:11:50;1.90;99.90
25450;DHT22;13371;52.080;5.624;2022-12-19T00:14:16;1.80;99.90
25450;DHT22;13371;52.080;5.624;2022-12-19T00:16:42;2.20;99.90
25450;DHT22;13371;52.080;5.624;2022-12-19T00:19:08;2.30;99.90
25450;DHT22;13371;52.080;5.624;2022-12-19T00:21:34;2.10;99.90
25450;DHT22;13371;52.080;5.624;2022-12-19T00:24:00;2.10;99.90
25450;DHT22;13371;52.080;5.624;2022-12-19T00:26:29;2.10;99.90
25450;DHT22;13371;52.080;5.624;2022-12-19T00:28:58;2.10;99.90
25450;DHT22;13371;52.080;5.624;2022-12-19T00:31:26;2.10;99.90
25450;DHT22;13371;52.080;5.624;2022-12-19T00:33:52;2.20;99.90
25450;DHT22;13371;52.080;5.624;2022-12-19T00:36:20;2.10;99.90
25450;DHT22;13371;52.080;5.624;2022-12-19T00:38:47;2.20;99.90
25450;DHT22;13371;52.080;5.624;2022-12-19T00:41:14;2.30;99.90
25450;DHT22;13371;52.080;5.624;2022-12-19T00:43:41;2.20;99.90
25450;DHT22;13371;52.080;5.624;2022-12-19T00:46:10;2.20;99.90
25450;DHT22;13371;52.080;5.624;2022-12-19T00:48:36;2.20;99.90
25450;DHT22;13371;52.080;5.624;2022-12-19T00:51:03;2.30;99.90
25450;DHT22;13371;52.080;5.624;2022-12-19T00:53:29;2.10;99.90
25450;DHT22;13371;52.080;5.624;2022-12-19T00:55:54;2.20;99.90
25450;DHT22;13371;52.080;5.624;2022-12-19T00:58:20;2.30;99.90
25450;DHT22;13371;52.080;5.624;2022-12-19T01:00:46;2.30;99.90
25450;DHT22;13371;52.080;5.624;2022-12-19T01:03:11;2.40;99.90
25450;DHT22;13371;52.080;5.624;2022-12-19T01:05:37;2.40;99.90
25450;DHT22;13371;52.080;5.624;2022-12-19T01:08:02;2.40;99.90
25450;DHT22;13371;52.080;5.624;2022-12-19T01:10:28;2.50;99.90
25450;DHT22;13371;52.080;5.624;2022-12-19T01:12:54;2.30;99.90
25450;DHT22;13371;52.080;5.624;2022-12-19T01:15:20;2.30;99.90
25450;DHT22;13371;52.080;5.624;2022-12-19T01:17:49;2.40;99.90
25450;DHT22;13371;52.080;5.624;2022-12-19T01:20:17;2.50;99.90
25450;DHT22;13371;52.080;5.624;2022-12-19T01:22:43;2.60;99.90
25450;DHT22;13371;52.080;5.624;2022-12-19T01:25:10;2.80;99.90
25450;DHT22;13371;52.080;5.624;2022-12-19T01:27:35;2.70;99.90
25450;DHT22;13371;52.080;5.624;2022-12-19T01:30:01;2.80;99.90
25450;DHT22;13371;52.080;5.624;2022-12-19T01:32:27;3.00;99.90
25450;DHT22;13371;52.080;5.624;2022-12-19T01:34:53;3.00;99.90
25450;DHT22;13371;52.080;5.624;2022-12-19T01:37:19;2.90;99.90
25450;DHT22;13371;52.080;5.624;2022-12-19T01:39:45;3.00;99.90
25450;DHT22;13371;52.080;5.624;2022-12-19T01:42:34;2.90;99.90
25450;DHT22;13371;52.080;5.624;2022-12-19T01:45:04;2.90;99.90
25450;DHT22;13371;52.080;5.624;2022-12-19T01:47:31;2.90;99.90
25450;DHT22;13371;52.080;5.624;2022-12-19T01:49:57;3.00;99.90
25450;DHT22;13371;52.080;5.624;2022-12-19T01:52:23;2.90;99.90
25450;DHT22;13371;52.080;5.624;2022-12-19T01:54:49;2.90;99.90
25450;DHT22;13371;52.080;5.624;2022-12-19T01:57:17;2.90;99.90
25450;DHT22;13371;52.080;5.624;2022-12-19T01:59:53;3.00;99.90
25450;DHT22;13371;52.080;5.624;2022-12-19T02:02:29;3.00;99.90
25450;DHT22;13371;52.080;5.624;2022-12-19T02:04:55;3.20;99.90
25450;DHT22;13371;52.080;5.624;2022-12-19T02:07:22;3.30;99.90
25450;DHT22;13371;52.080;5.624;2022-12-19T02:09:54;3.20;99.90
25450;DHT22;13371;52.080;5.624;2022-12-19T02:12:21;3.30;99.90
25450;DHT22;13371;52.080;5.624;2022-12-19T02:14:53;3.40;99.90
25450;DHT22;13371;52.080;5.624;2022-12-19T02:22:58;3.60;99.90
25450;DHT22;13371;52.080;5.624;2022-12-19T02:28:48;3.70;99.90
25450;DHT22;13371;52.080;5.624;2022-12-19T02:31:35;3.60;99.90
25450;DHT22;13371;52.080;5.624;2022-12-19T02:34:18;3.30;99.90
25450;DHT22;13371;52.080;5.624;2022-12-19T02:36:48;3.40;99.90
25450;DHT22;13371;52.080;5.624;2022-12-19T02:39:22;3.60;99.90
25450;DHT22;13371;52.080;5.624;2022-12-19T02:41:55;3.50;99.90
25450;DHT22;13371;52.080;5.624;2022-12-19T02:44:28;3.60;99.90
25450;DHT22;13371;52.080;5.624;2022-12-19T02:46:56;3.60;99.90
25450;DHT22;13371;52.080;5.624;2022-12-19T02:49:23;3.70;99.90
25450;DHT22;13371;52.080;5.624;2022-12-19T02:51:48;3.60;99.90
25450;DHT22;13371;52.080;5.624;2022-12-19T02:54:14;3.50;99.90
25450;DHT22;13371;52.080;5.624;2022-12-19T03:05:15;3.80;99.90
25450;DHT22;13371;52.080;5.624;2022-12-19T03:07:51;3.70;99.90
25450;DHT22;13371;52.080;5.624;2022-12-19T03:10:28;3.70;99.90
25450;DHT22;13371;52.080;5.624;2022-12-19T03:13:00;3.70;99.90
25450;DHT22;13371;52.080;5.624;2022-12-19T03:15:27;3.80;99.90
25450;DHT22;13371;52.080;5.624;2022-12-19T03:18:00;3.70;99.90
25450;DHT22;13371;52.080;5.624;2022-12-19T03:23:11;3.70;99.90
25450;DHT22;13371;52.080;5.624;2022-12-19T03:25:37;4.10;99.90
25450;DHT22;13371;52.080;5.624;2022-12-19T03:28:11;4.00;99.90
25450;DHT22;13371;52.080;5.624;2022-12-19T03:30:39;4.20;99.90
25450;DHT22;13371;52.080;5.624;2022-12-19T03:33:06;4.20;99.90
25450;DHT22;13371;52.080;5.624;2022-12-19T03:35:33;4.10;99.90
25450;DHT22;13371;52.080;5.624;2022-12-19T03:38:01;4.30;99.90
25450;DHT22;13371;52.080;5.624;2022-12-19T03:40:29;4.30;99.90
25450;DHT22;13371;52.080;5.624;2022-12-19T03:43:03;4.30;99.90
25450;DHT22;13371;52.080;5.624;2022-12-19T03:46:04;4.30;99.90
25450;DHT22;13371;52.080;5.624;2022-12-19T03:48:43;4.40;99.90
25450;DHT22;13371;52.080;5.624;2022-12-19T03:51:36;4.40;99.90
25450;DHT22;13371;52.080;5.624;2022-12-19T03:57:06;4.70;99.90
25450;DHT22;13371;52.080;5.624;2022-12-19T03:59:37;4.60;99.90
25450;DHT22;13371;52.080;5.624;2022-12-19T04:02:04;4.60;99.90
25450;DHT22;13371;52.080;5.624;2022-12-19T04:04:32;4.80;99.90
25450;DHT22;13371;52.080;5.624;2022-12-19T04:07:01;4.70;99.90
25450;DHT22;13371;52.080;5.624;2022-12-19T04:09:29;4.90;99.90
25450;DHT22;13371;52.080;5.624;2022-12-19T04:12:02;4.80;99.90
25450;DHT22;13371;52.080;5.624;2022-12-19T04:14:31;4.90;99.90
25450;DHT22;13371;52.080;5.624;2022-12-19T04:19:43;4.80;99.90
25450;DHT22;13371;52.080;5.624;2022-12-19T04:22:24;5.00;99.90
25450;DHT22;13371;52.080;5.624;2022-12-19T04:24:53;5.00;99.90
25450;DHT22;13371;52.080;5.624;2022-12-19T04:27:19;5.00;99.90
25450;DHT22;13371;52.080;5.624;2022-12-19T04:29:46;4.90;99.90
25450;DHT22;13371;52.080;5.624;2022-12-19T04:32:13;5.00;99.90
25450;DHT22;13371;52.080;5.624;2022-12-19T04:34:39;5.00;99.90
25450;DHT22;13371;52.080;5.624;2022-12-19T04:37:05;4.90;99.90
25450;DHT22;13371;52.080;5.624;2022-12-19T04:39:31;4.90;99.90
25450;DHT22;13371;52.080;5.624;2022-12-19T04:41:57;4.90;99.90
25450;DHT22;13371;52.080;5.624;2022-12-19T04:44:22;5.10;99.90
25450;DHT22;13371;52.080;5.624;2022-12-19T04:46:48;5.20;99.90
25450;DHT22;13371;52.080;5.624;2022-12-19T04:49:13;5.20;99.90
25450;DHT22;13371;52.080;5.624;2022-12-19T04:51:39;5.10;99.90
25450;DHT22;13371;52.080;5.624;2022-12-19T04:54:04;5.50;99.90
25450;DHT22;13371;52.080;5.624;2022-12-19T04:56:30;5.50;99.90
25450;DHT22;13371;52.080;5.624;2022-12-19T04:58:57;5.40;99.90
25450;DHT22;13371;52.080;5.624;2022-12-19T05:01:23;5.30;99.90
25450;DHT22;13371;52.080;5.624;2022-12-19T05:03:49;5.20;99.90
25450;DHT22;13371;52.080;5.624;2022-12-19T05:06:16;5.50;99.90
25450;DHT22;13371;52.080;5.624;2022-12-19T05:08:42;5.50;99.90
25450;DHT22;13371;52.080;5.624;2022-12-19T05:11:09;5.60;99.90
25450;DHT22;13371;52.080;5.624;2022-12-19T05:13:35;5.40;99.90
25450;DHT22;13371;52.080;5.624;2022-12-19T05:16:03;5.60;99.90
25450;DHT22;13371;52.080;5.624;2022-12-19T05:18:30;5.60;99.90
25450;DHT22;13371;52.080;5.624;2022-12-19T05:20:55;5.80;99.90
25450;DHT22;13371;52.080;5.624;2022-12-19T05:23:22;5.90;99.90
25450;DHT22;13371;52.080;5.624;2022-12-19T05:25:48;5.80;99.90
25450;DHT22;13371;52.080;5.624;2022-12-19T05:28:14;6.00;99.90
25450;DHT22;13371;52.080;5.624;2022-12-19T05:30:40;5.90;99.90
25450;DHT22;13371;52.080;5.624;2022-12-19T05:33:06;5.80;99.90
25450;DHT22;13371;52.080;5.624;2022-12-19T05:35:33;5.80;99.90
25450;DHT22;13371;52.080;5.624;2022-12-19T05:37:58;5.70;99.90
25450;DHT22;13371;52.080;5.624;2022-12-19T05:40:24;5.80;99.90
25450;DHT22;13371;52.080;5.624;2022-12-19T05:42:50;5.90;99.90
25450;DHT22;13371;52.080;5.624;2022-12-19T05:45:16;6.00;99.90
25450;DHT22;13371;52.080;5.624;2022-12-19T05:47:43;6.30;99.90
25450;DHT22;13371;52.080;5.624;2022-12-19T05:50:14;6.30;99.90
25450;DHT22;13371;52.080;5.624;2022-12-19T05:52:39;6.30;99.90
25450;DHT22;13371;52.080;5.624;2022-12-19T05:55:06;6.50;99.90
25450;DHT22;13371;52.080;5.624;2022-12-19T05:57:33;6.40;99.90
25450;DHT22;13371;52.080;5.624;2022-12-19T05:59:58;6.30;99.90
25450;DHT22;13371;52.080;5.624;2022-12-19T06:02:24;6.20;99.90
25450;DHT22;13371;52.080;5.624;2022-12-19T06:04:50;6.20;99.90
25450;DHT22;13371;52.080;5.624;2022-12-19T06:07:16;6.30;99.90
25450;DHT22;13371;52.080;5.624;2022-12-19T06:09:41;6.30;99.90
25450;DHT22;13371;52.080;5.624;2022-12-19T06:12:07;6.40;99.90
25450;DHT22;13371;52.080;5.624;2022-12-19T06:14:32;6.50;99.90
25450;DHT22;13371;52.080;5.624;2022-12-19T06:16:58;6.40;99.90
25450;DHT22;13371;52.080;5.624;2022-12-19T06:19:24;6.60;99.90
25450;DHT22;13371;52.080;5.624;2022-12-19T06:21:49;6.70;99.90
25450;DHT22;13371;52.080;5.624;2022-12-19T06:24:15;6.70;99.90
25450;DHT22;13371;52.080;5.624;2022-12-19T06:26:41;6.60;99.90
25450;DHT22;13371;52.080;5.624;2022-12-19T06:29:07;6.80;99.90
25450;DHT22;13371;52.080;5.624;2022-12-19T06:31:33;6.90;99.90
25450;DHT22;13371;52.080;5.624;2022-12-19T06:33:58;7.00;99.90
25450;DHT22;13371;52.080;5.624;2022-12-19T06:36:26;6.90;99.90
25450;DHT22;13371;52.080;5.624;2022-12-19T06:38:53;7.00;99.90
25450;DHT22;13371;52.080;5.624;2022-12-19T06:41:19;7.20;99.90
25450;DHT22;13371;52.080;5.624;2022-12-19T06:44:06;7.40;99.90
25450;DHT22;13371;52.080;5.624;2022-12-19T06:46:32;7.50;99.90
25450;DHT22;13371;52.080;5.624;2022-12-19T06:48:58;7.40;99.90
25450;DHT22;13371;52.080;5.624;2022-12-19T06:51:24;7.40;99.90
25450;DHT22;13371;52.080;5.624;2022-12-19T06:53:51;7.40;99.90
25450;DHT22;13371;52.080;5.624;2022-12-19T06:56:17;7.50;99.90
25450;DHT22;13371;52.080;5.624;2022-12-19T06:58:43;7.60;99.90
25450;DHT22;13371;52.080;5.624;2022-12-19T07:01:19;7.60;99.90
25450;DHT22;13371;52.080;5.624;2022-12-19T07:03:45;7.80;99.90
25450;DHT22;13371;52.080;5.624;2022-12-19T07:06:11;8.10;99.90
25450;DHT22;13371;52.080;5.624;2022-12-19T07:08:37;7.90;99.90
25450;DHT22;13371;52.080;5.624;2022-12-19T07:11:02;7.80;99.90
25450;DHT22;13371;52.080;5.624;2022-12-19T07:13:28;7.80;99.90
25450;DHT22;13371;52.080;5.624;2022-12-19T07:15:56;7.90;99.90
25450;DHT22;13371;52.080;5.624;2022-12-19T07:18:23;7.90;99.90
25450;DHT22;13371;52.080;5.624;2022-12-19T07:20:48;7.90;99.90
25450;DHT22;13371;52.080;5.624;2022-12-19T07:23:18;8.10;99.90
25450;DHT22;13371;52.080;5.624;2022-12-19T07:25:45;8.10;99.90
25450;DHT22;13371;52.080;5.624;2022-12-19T07:28:10;8.20;99.90
25450;DHT22;13371;52.080;5.624;2022-12-19T07:30:36;8.20;99.90
25450;DHT22;13371;52.080;5.624;2022-12-19T07:33:02;8.10;99.90
25450;DHT22;13371;52.080;5.624;2022-12-19T07:35:27;8.20;99.90
25450;DHT22;13371;52.080;5.624;2022-12-19T07:37:53;8.10;99.90
25450;DHT22;13371;52.080;5.624;2022-12-19T07:40:19;8.20;99.90
25450;DHT22;13371;52.080;5.624;2022-12-19T07:42:44;8.30;99.90
25450;DHT22;13371;52.080;5.624;2022-12-19T07:45:11;8.30;99.90
25450;DHT22;13371;52.080;5.624;2022-12-19T07:47:36;8.40;99.90
25450;DHT22;13371;52.080;5.624;2022-12-19T07:50:02;8.50;99.90
25450;DHT22;13371;52.080;5.624;2022-12-19T07:52:28;8.50;99.90
25450;DHT22;13371;52.080;5.624;2022-12-19T07:54:53;8.50;99.90
25450;DHT22;13371;52.080;5.624;2022-12-19T07:57:19;8.40;99.90
25450;DHT22;13371;52.080;5.624;2022-12-19T07:59:45;8.30;99.90
25450;DHT22;13371;52.080;5.624;2022-12-19T08:02:11;8.40;99.90
25450;DHT22;13371;52.080;5.624;2022-12-19T08:04:37;8.40;99.90
25450;DHT22;13371;52.080;5.624;2022-12-19T08:07:03;8.60;99.90
25450;DHT22;13371;52.080;5.624;2022-12-19T08:09:29;8.60;99.90
25450;DHT22;13371;52.080;5.624;2022-12-19T08:11:55;8.50;99.90
25450;DHT22;13371;52.080;5.624;2022-12-19T08:14:20;8.40;99.90
25450;DHT22;13371;52.080;5.624;2022-12-19T08:16:46;8.60;99.90
25450;DHT22;13371;52.080;5.624;2022-12-19T08:19:11;8.60;99.90
25450;DHT22;13371;52.080;5.624;2022-12-19T08:21:37;8.70;99.90
25450;DHT22;13371;52.080;5.624;2022-12-19T08:24:03;8.50;99.90
25450;DHT22;13371;52.080;5.624;2022-12-19T08:26:29;8.60;99.90
25450;DHT22;13371;52.080;5.624;2022-12-19T08:28:56;8.80;99.90
25450;DHT22;13371;52.080;5.624;2022-12-19T08:31:24;8.70;99.90
25450;DHT22;13371;52.080;5.624;2022-12-19T08:33:51;8.70;99.90
25450;DHT22;13371;52.080;5.624;2022-12-19T08:36:17;8.80;99.90
25450;DHT22;13371;52.080;5.624;2022-12-19T08:38:44;8.80;99.90
25450;DHT22;13371;52.080;5.624;2022-12-19T08:41:10;8.80;99.90
25450;DHT22;13371;52.080;5.624;2022-12-19T08:43:36;8.80;99.90
25450;DHT22;13371;52.080;5.624;2022-12-19T08:46:02;8.90;99.90
25450;DHT22;13371;52.080;5.624;2022-12-19T08:48:28;8.90;99.90
25450;DHT22;13371;52.080;5.624;2022-12-19T08:50:56;8.80;99.90
25450;DHT22;13371;52.080;5.624;2022-12-19T08:53:24;8.80;99.90
25450;DHT22;13371;52.080;5.624;2022-12-19T08:56:03;8.90;99.90
25450;DHT22;13371;52.080;5.624;2022-12-19T08:58:30;9.00;99.90
25450;DHT22;13371;52.080;5.624;2022-12-19T09:01:01;9.20;99.90
25450;DHT22;13371;52.080;5.624;2022-12-19T09:03:27;9.20;99.90
25450;DHT22;13371;52.080;5.624;2022-12-19T09:05:59;9.10;99.90
25450;DHT22;13371;52.080;5.624;2022-12-19T09:08:25;9.00;99.90
25450;DHT22;13371;52.080;5.624;2022-12-19T09:11:05;9.20;99.90
25450;DHT22;13371;52.080;5.624;2022-12-19T09:13:32;9.20;99.90
25450;DHT22;13371;52.080;5.624;2022-12-19T09:18:40;9.00;99.90
25450;DHT22;13371;52.080;5.624;2022-12-19T09:21:06;9.00;99.90
25450;DHT22;13371;52.080;5.624;2022-12-19T09:23:33;9.00;99.90
25450;DHT22;13371;52.080;5.624;2022-12-19T09:26:17;9.10;99.90
25450;DHT22;13371;52.080;5.624;2022-12-19T09:28:44;9.10;99.90
25450;DHT22;13371;52.080;5.624;2022-12-19T09:31:14;9.00;99.90
25450;DHT22;13371;52.080;5.624;2022-12-19T09:33:40;8.80;99.90
25450;DHT22;13371;52.080;5.624;2022-12-19T09:36:06;8.90;99.90
25450;DHT22;13371;52.080;5.624;2022-12-19T09:38:33;9.00;99.90
25450;DHT22;13371;52.080;5.624;2022-12-19T09:46:49;9.00;99.90
25450;DHT22;13371;52.080;5.624;2022-12-19T09:49:20;9.30;99.90
25450;DHT22;13371;52.080;5.624;2022-12-19T09:52:05;9.30;99.90
25450;DHT22;13371;52.080;5.624;2022-12-19T09:54:34;9.40;99.90
25450;DHT22;13371;52.080;5.624;2022-12-19T09:57:04;9.30;99.90
25450;DHT22;13371;52.080;5.624;2022-12-19T09:59:32;9.30;99.90
25450;DHT22;13371;52.080;5.624;2022-12-19T10:05:23;9.30;99.90
25450;DHT22;13371;52.080;5.624;2022-12-19T10:07:51;9.20;99.90
25450;DHT22;13371;52.080;5.624;2022-12-19T10:10:21;9.30;99.90
25450;DHT22;13371;52.080;5.624;2022-12-19T10:15:42;9.20;99.90
25450;DHT22;13371;52.080;5.624;2022-12-19T10:19:02;9.20;99.90
25450;DHT22;13371;52.080;5.624;2022-12-19T10:24:29;9.40;99.90
25450;DHT22;13371;52.080;5.624;2022-12-19T10:26:59;9.50;99.90
25450;DHT22;13371;52.080;5.624;2022-12-19T10:29:55;9.50;99.90
25450;DHT22;13371;52.080;5.624;2022-12-19T10:32:34;9.30;99.90
25450;DHT22;13371;52.080;5.624;2022-12-19T10:35:14;9.40;99.90
25450;DHT22;13371;52.080;5.624;2022-12-19T10:37:49;9.40;99.90
25450;DHT22;13371;52.080;5.624;2022-12-19T10:45:18;9.60;99.90
25450;DHT22;13371;52.080;5.624;2022-12-19T10:47:56;9.60;99.90
25450;DHT22;13371;52.080;5.624;2022-12-19T10:50:28;9.50;99.90
25450;DHT22;13371;52.080;5.624;2022-12-19T10:58:32;9.70;99.90
25450;DHT22;13371;52.080;5.624;2022-12-19T11:01:14;9.80;99.90
25450;DHT22;13371;52.080;5.624;2022-12-19T11:03:48;9.90;99.90
25450;DHT22;13371;52.080;5.624;2022-12-19T11:06:47;9.90;99.90
25450;DHT22;13371;52.080;5.624;2022-12-19T11:09:21;9.80;99.90
25450;DHT22;13371;52.080;5.624;2022-12-19T11:14:36;10.00;99.90
25450;DHT22;13371;52.080;5.624;2022-12-19T11:17:02;10.00;99.90
25450;DHT22;13371;52.080;5.624;2022-12-19T11:19:36;10.10;99.90
25450;DHT22;13371;52.080;5.624;2022-12-19T11:22:25;10.00;99.90
25450;DHT22;13371;52.080;5.624;2022-12-19T11:24:53;10.10;99.90
25450;DHT22;13371;52.080;5.624;2022-12-19T11:27:39;10.00;99.90
25450;DHT22;13371;52.080;5.624;2022-12-19T11:30:17;9.70;99.90
25450;DHT22;13371;52.080;5.624;2022-12-19T11:32:46;9.90;99.90
25450;DHT22;13371;52.080;5.624;2022-12-19T11:35:22;9.90;99.90
25450;DHT22;13371;52.080;5.624;2022-12-19T11:37:57;9.80;99.90
25450;DHT22;13371;52.080;5.624;2022-12-19T11:40:40;9.80;99.90
25450;DHT22;13371;52.080;5.624;2022-12-19T11:45:47;10.10;99.90
25450;DHT22;13371;52.080;5.624;2022-12-19T11:51:04;10.10;99.90
25450;DHT22;13371;52.080;5.624;2022-12-19T11:53:39;10.10;99.90
25450;DHT22;13371;52.080;5.624;2022-12-19T11:56:11;10.00;99.90
25450;DHT22;13371;52.080;5.624;2022-12-19T11:58:38;10.00;99.90
25450;DHT22;13371;52.080;5.624;2022-12-19T12:06:37;10.10;99.90
25450;DHT22;13371;52.080;5.624;2022-12-19T12:11:55;10.00;99.90
25450;DHT22;13371;52.080;5.624;2022-12-19T12:30:46;10.30;99.90
25450;DHT22;13371;52.080;5.624;2022-12-19T12:33:51;10.10;99.90
25450;DHT22;13371;52.080;5.624;2022-12-19T12:37:11;10.10;99.90
25450;DHT22;13371;52.080;5.624;2022-12-19T12:42:42;10.50;99.90
25450;DHT22;13371;52.080;5.624;2022-12-19T12:47:55;10.40;99.90
25450;DHT22;13371;52.080;5.624;2022-12-19T12:50:23;10.40;99.90
25450;DHT22;13371;52.080;5.624;2022-12-19T12:52:54;10.50;99.90
25450;DHT22;13371;52.080;5.624;2022-12-19T12:57:53;10.50;99.90
25450;DHT22;13371;52.080;5.624;2022-12-19T13:00:27;10.40;99.90
25450;DHT22;13371;52.080;5.624;2022-12-19T13:03:05;10.50;99.90
25450;DHT22;13371;52.080;5.624;2022-12-19T13:08:26;10.70;99.90
25450;DHT22;13371;52.080;5.624;2022-12-19T13:10:57;10.70;99.90
25450;DHT22;13371;52.080;5.624;2022-12-19T13:13:49;10.80;99.90
25450;DHT22;13371;52.080;5.624;2022-12-19T13:19:38;10.90;99.90
25450;DHT22;13371;52.080;5.624;2022-12-19T13:22:20;11.10;99.90
25450;DHT22;13371;52.080;5.624;2022-12-19T13:24:53;11.10;99.90
25450;DHT22;13371;52.080;5.624;2022-12-19T13:40:28;10.90;99.90
25450;DHT22;13371;52.080;5.624;2022-12-19T13:43:43;10.90;99.90
25450;DHT22;13371;52.080;5.624;2022-12-19T13:46:40;10.90;99.90
25450;DHT22;13371;52.080;5.624;2022-12-19T13:49:09;10.90;99.90
25450;DHT22;13371;52.080;5.624;2022-12-19T13:51:56;10.90;99.90
25450;DHT22;13371;52.080;5.624;2022-12-19T13:54:32;10.90;99.90
25450;DHT22;13371;52.080;5.624;2022-12-19T13:57:00;11.00;99.90
25450;DHT22;13371;52.080;5.624;2022-12-19T13:59:29;11.00;99.90
25450;DHT22;13371;52.080;5.624;2022-12-19T14:02:06;11.20;99.90
25450;DHT22;13371;52.080;5.624;2022-12-19T14:04:32;11.10;99.90
25450;DHT22;13371;52.080;5.624;2022-12-19T14:06:59;11.10;99.90
25450;DHT22;13371;52.080;5.624;2022-12-19T14:09:38;11.00;99.90
25450;DHT22;13371;52.080;5.624;2022-12-19T14:12:10;10.90;99.90
25450;DHT22;13371;52.080;5.624;2022-12-19T14:14:56;10.80;99.90
25450;DHT22;13371;52.080;5.624;2022-12-19T14:17:45;11.00;99.90
25450;DHT22;13371;52.080;5.624;2022-12-19T14:20:23;11.20;99.90
25450;DHT22;13371;52.080;5.624;2022-12-19T14:22:48;11.30;99.90
25450;DHT22;13371;52.080;5.624;2022-12-19T14:25:14;11.20;99.90
25450;DHT22;13371;52.080;5.624;2022-12-19T14:27:43;11.20;99.90
25450;DHT22;13371;52.080;5.624;2022-12-19T14:30:22;11.20;99.90
25450;DHT22;13371;52.080;5.624;2022-12-19T14:32:51;11.10;99.90
25450;DHT22;13371;52.080;5.624;2022-12-19T14:35:20;11.00;99.90
25450;DHT22;13371;52.080;5.624;2022-12-19T14:37:47;11.10;99.90
25450;DHT22;13371;52.080;5.624;2022-12-19T14:40:24;11.00;99.90
25450;DHT22;13371;52.080;5.624;2022-12-19T14:42:51;10.90;99.90
25450;DHT22;13371;52.080;5.624;2022-12-19T14:45:41;10.90;99.90
25450;DHT22;13371;52.080;5.624;2022-12-19T14:48:43;10.90;99.90
25450;DHT22;13371;52.080;5.624;2022-12-19T14:51:10;10.80;99.90
25450;DHT22;13371;52.080;5.624;2022-12-19T14:53:38;10.80;99.90
25450;DHT22;13371;52.080;5.624;2022-12-19T14:58:37;11.00;99.90
25450;DHT22;13371;52.080;5.624;2022-12-19T15:01:06;11.00;99.90
25450;DHT22;13371;52.080;5.624;2022-12-19T15:03:50;11.10;99.90
25450;DHT22;13371;52.080;5.624;2022-12-19T15:06:18;11.20;99.90
25450;DHT22;13371;52.080;5.624;2022-12-19T15:08:48;11.30;99.90
25450;DHT22;13371;52.080;5.624;2022-12-19T15:11:29;11.40;99.90
25450;DHT22;13371;52.080;5.624;2022-12-19T15:14:26;11.60;99.90
25450;DHT22;13371;52.080;5.624;2022-12-19T15:17:09;11.50;99.90
25450;DHT22;13371;52.080;5.624;2022-12-19T15:19:38;11.30;99.90
25450;DHT22;13371;52.080;5.624;2022-12-19T15:22:04;11.20;99.90
25450;DHT22;13371;52.080;5.624;2022-12-19T15:24:29;11.40;99.90
25450;DHT22;13371;52.080;5.624;2022-12-19T15:26:55;11.20;99.90
25450;DHT22;13371;52.080;5.624;2022-12-19T15:29:20;11.20;99.90
25450;DHT22;13371;52.080;5.624;2022-12-19T15:31:46;11.40;99.90
25450;DHT22;13371;52.080;5.624;2022-12-19T15:34:30;11.40;99.90
25450;DHT22;13371;52.080;5.624;2022-12-19T15:36:58;11.50;99.90
25450;DHT22;13371;52.080;5.624;2022-12-19T15:39:25;11.60;99.90
25450;DHT22;13371;52.080;5.624;2022-12-19T15:41:55;11.60;99.90
25450;DHT22;13371;52.080;5.624;2022-12-19T15:47:00;11.70;99.90
25450;DHT22;13371;52.080;5.624;2022-12-19T15:49:26;11.80;99.90
25450;DHT22;13371;52.080;5.624;2022-12-19T15:51:52;11.80;99.90
25450;DHT22;13371;52.080;5.624;2022-12-19T15:54:18;11.90;99.90
25450;DHT22;13371;52.080;5.624;2022-12-19T15:56:47;11.70;99.90
25450;DHT22;13371;52.080;5.624;2022-12-19T15:59:30;11.60;99.90
25450;DHT22;13371;52.080;5.624;2022-12-19T16:01:57;11.70;99.90
25450;DHT22;13371;52.080;5.624;2022-12-19T16:04:26;11.60;99.90
25450;DHT22;13371;52.080;5.624;2022-12-19T16:06:52;11.30;99.90
25450;DHT22;13371;52.080;5.624;2022-12-19T16:09:19;11.60;99.90
25450;DHT22;13371;52.080;5.624;2022-12-19T16:11:46;11.60;99.90
25450;DHT22;13371;52.080;5.624;2022-12-19T16:14:12;11.50;99.90
25450;DHT22;13371;52.080;5.624;2022-12-19T16:16:38;11.30;99.90
25450;DHT22;13371;52.080;5.624;2022-12-19T16:19:25;11.40;99.90
25450;DHT22;13371;52.080;5.624;2022-12-19T16:21:51;11.40;99.90
25450;DHT22;13371;52.080;5.624;2022-12-19T16:24:17;11.30;99.90
25450;DHT22;13371;52.080;5.624;2022-12-19T16:26:43;11.50;99.90
25450;DHT22;13371;52.080;5.624;2022-12-19T16:29:28;11.50;99.90
25450;DHT22;13371;52.080;5.624;2022-12-19T16:31:55;11.40;99.90
25450;DHT22;13371;52.080;5.624;2022-12-19T16:34:22;11.40;99.90
25450;DHT22;13371;52.080;5.624;2022-12-19T16:36:49;11.50;99.90
25450;DHT22;13371;52.080;5.624;2022-12-19T16:39:15;11.20;99.90
25450;DHT22;13371;52.080;5.624;2022-12-19T16:41:42;11.20;99.90
25450;DHT22;13371;52.080;5.624;2022-12-19T16:44:19;11.20;99.90
25450;DHT22;13371;52.080;5.624;2022-12-19T16:46:46;11.20;99.90
25450;DHT22;13371;52.080;5.624;2022-12-19T16:49:14;11.10;99.90
25450;DHT22;13371;52.080;5.624;2022-12-19T16:51:41;11.10;99.90
25450;DHT22;13371;52.080;5.624;2022-12-19T16:54:07;11.20;99.90
25450;DHT22;13371;52.080;5.624;2022-12-19T16:56:39;11.30;99.90
25450;DHT22;13371;52.080;5.624;2022-12-19T17:01:44;11.30;99.90
25450;DHT22;13371;52.080;5.624;2022-12-19T17:04:14;11.30;99.90
25450;DHT22;13371;52.080;5.624;2022-12-19T17:06:41;11.30;99.90
25450;DHT22;13371;52.080;5.624;2022-12-19T17:09:07;11.20;99.90
25450;DHT22;13371;52.080;5.624;2022-12-19T17:11:34;11.20;99.90
25450;DHT22;13371;52.080;5.624;2022-12-19T17:14:03;11.40;99.90
25450;DHT22;13371;52.080;5.624;2022-12-19T17:16:30;11.50;99.90
25450;DHT22;13371;52.080;5.624;2022-12-19T17:18:57;11.40;99.90
25450;DHT22;13371;52.080;5.624;2022-12-19T17:21:22;11.40;99.90
25450;DHT22;13371;52.080;5.624;2022-12-19T17:23:49;11.50;99.90
25450;DHT22;13371;52.080;5.624;2022-12-19T17:26:15;11.50;99.90
25450;DHT22;13371;52.080;5.624;2022-12-19T17:28:41;11.50;99.90
25450;DHT22;13371;52.080;5.624;2022-12-19T17:31:25;11.30;99.90
25450;DHT22;13371;52.080;5.624;2022-12-19T17:33:53;11.20;99.90
25450;DHT22;13371;52.080;5.624;2022-12-19T17:36:20;11.30;99.90
25450;DHT22;13371;52.080;5.624;2022-12-19T17:38:46;11.30;99.90
25450;DHT22;13371;52.080;5.624;2022-12-19T17:41:14;11.20;99.90
25450;DHT22;13371;52.080;5.624;2022-12-19T17:43:43;11.30;99.90
25450;DHT22;13371;52.080;5.624;2022-12-19T17:46:19;11.40;99.90
25450;DHT22;13371;52.080;5.624;2022-12-19T17:48:47;11.40;99.90
25450;DHT22;13371;52.080;5.624;2022-12-19T17:51:17;11.50;99.90
25450;DHT22;13371;52.080;5.624;2022-12-19T17:53:44;11.50;99.90
25450;DHT22;13371;52.080;5.624;2022-12-19T17:56:14;11.60;99.90
25450;DHT22;13371;52.080;5.624;2022-12-19T17:58:40;11.50;99.90
25450;DHT22;13371;52.080;5.624;2022-12-19T18:03:40;11.30;99.90